createdAt,value
2023-03-06T00:00:00.666Z,980.3
2023-03-06T00:10:00.663Z,980.4
2023-03-06T00:20:00.699Z,980.2
2023-03-06T00:30:00.762Z,980.1
2023-03-06T00:40:00.712Z,980.1
2023-03-06T00:50:00.651Z,980.1
2023-03-06T01:00:00.756Z,979.9
2023-03-06T01:10:00.641Z,979.9
2023-03-06T01:20:00.838Z,979.8
2023-03-06T01:30:00.631Z,979.8
2023-03-06T01:40:00.719Z,979.7
2023-03-06T01:50:00.606Z,979.8
2023-03-06T02:00:00.682Z,979.7
2023-03-06T02:10:00.658Z,979.7
2023-03-06T02:20:00.713Z,979.6
2023-03-06T02:30:00.693Z,979.6
2023-03-06T02:40:00.753Z,979.6
2023-03-06T02:50:00.650Z,979.6
2023-03-06T03:00:00.663Z,979.6
2023-03-06T03:10:00.661Z,979.7
2023-03-06T03:20:00.668Z,979.6
2023-03-06T03:30:00.667Z,979.5
2023-03-06T03:40:00.688Z,979.5
2023-03-06T03:50:00.642Z,979.5
2023-03-06T04:00:00.642Z,979.5
2023-03-06T04:10:00.652Z,979.5
2023-03-06T04:20:00.765Z,979.6
2023-03-06T04:30:00.714Z,979.5
2023-03-06T04:40:00.657Z,979.5
2023-03-06T04:50:00.682Z,979.5
2023-03-06T05:00:00.650Z,979.4
2023-03-06T05:10:00.646Z,979.4
2023-03-06T05:20:00.666Z,979.5
2023-03-06T05:30:00.663Z,979.5
2023-03-06T05:40:00.719Z,979.5
2023-03-06T05:50:00.703Z,979.5
2023-03-06T06:00:00.673Z,979.6
2023-03-06T06:10:03.441Z,979.5
2023-03-06T06:20:00.681Z,979.6
2023-03-06T06:30:00.728Z,979.7
2023-03-06T06:40:00.712Z,979.6
2023-03-06T06:50:00.728Z,979.6
2023-03-06T07:00:00.673Z,979.6
2023-03-06T07:10:00.720Z,979.7
2023-03-06T07:20:00.720Z,979.8
2023-03-06T07:30:00.650Z,979.9
2023-03-06T07:40:00.661Z,980.0
2023-03-06T07:50:00.645Z,980.1
2023-03-06T08:00:00.757Z,979.9
2023-03-06T08:10:00.714Z,980.0
2023-03-06T08:20:00.682Z,980.0
2023-03-06T08:30:00.816Z,980.0
2023-03-06T08:40:00.661Z,980.0
2023-03-06T08:50:00.977Z,979.9
2023-03-06T09:00:00.661Z,979.9
2023-03-06T09:10:00.732Z,979.7
2023-03-06T09:20:00.686Z,979.7
2023-03-06T09:30:00.666Z,979.6
2023-03-06T09:40:00.695Z,979.6
2023-03-06T09:50:00.691Z,979.5
2023-03-06T10:00:03.864Z,979.4
2023-03-06T10:10:00.743Z,979.5
2023-03-06T10:20:00.682Z,979.5
2023-03-06T10:30:03.638Z,979.3
2023-03-06T10:40:00.678Z,979.2
2023-03-06T10:50:00.684Z,979.1
2023-03-06T11:00:00.667Z,978.9
2023-03-06T11:10:00.699Z,978.7
2023-03-06T11:20:00.730Z,978.6
2023-03-06T11:30:00.733Z,978.3
2023-03-06T11:40:00.697Z,978.2
2023-03-06T11:50:00.660Z,978.0
2023-03-06T12:00:00.692Z,977.9
2023-03-06T12:10:00.743Z,977.8
2023-03-06T12:20:00.660Z,977.7
2023-03-06T12:30:00.709Z,977.6
2023-03-06T12:40:00.678Z,977.5
2023-03-06T12:50:00.712Z,977.5
2023-03-06T13:00:00.668Z,977.5
2023-03-06T13:10:00.704Z,977.3
2023-03-06T13:20:00.671Z,977.2
2023-03-06T13:30:00.673Z,977.1
2023-03-06T13:40:00.688Z,977.1
2023-03-06T13:50:00.641Z,977.1
2023-03-06T14:00:08.740Z,977.1
2023-03-06T14:10:00.744Z,976.9
2023-03-06T14:20:00.702Z,976.8
2023-03-06T14:30:00.632Z,976.6
2023-03-06T14:40:00.686Z,976.6
2023-03-06T14:50:00.645Z,976.6
2023-03-06T15:00:00.732Z,976.6
2023-03-06T15:10:00.691Z,976.6
2023-03-06T15:20:00.668Z,976.5
2023-03-06T15:30:00.688Z,976.4
2023-03-06T15:40:00.691Z,976.5
2023-03-06T15:50:00.679Z,976.4
2023-03-06T16:00:00.682Z,976.5
2023-03-06T16:10:00.657Z,976.5
2023-03-06T16:20:00.663Z,976.4
2023-03-06T16:30:00.699Z,976.5
2023-03-06T16:40:00.681Z,976.6
2023-03-06T16:50:00.803Z,976.6
2023-03-06T17:00:00.655Z,976.6
2023-03-06T17:10:00.649Z,976.5
2023-03-06T17:20:00.808Z,976.5
2023-03-06T17:30:00.759Z,976.6
2023-03-06T17:40:00.682Z,976.5
2023-03-06T17:50:00.740Z,976.5
2023-03-06T18:00:00.641Z,976.6
2023-03-06T18:10:00.656Z,976.7
2023-03-06T18:20:00.618Z,976.6
2023-03-06T18:30:00.649Z,976.5
2023-03-06T18:40:00.709Z,976.5
2023-03-06T18:50:00.740Z,976.5
2023-03-06T19:00:01.872Z,976.4
2023-03-06T19:10:00.685Z,976.5
2023-03-06T19:20:00.739Z,976.6
2023-03-06T19:30:00.672Z,976.4
2023-03-06T19:40:00.696Z,976.2
2023-03-06T19:50:00.656Z,976.2
2023-03-06T20:00:00.667Z,976.3
2023-03-06T20:10:00.710Z,976.3
2023-03-06T20:20:00.693Z,976.5
2023-03-06T20:30:00.678Z,976.5
2023-03-06T20:40:00.666Z,976.3
2023-03-06T20:50:00.656Z,976.3
2023-03-06T21:00:00.666Z,976.4
2023-03-06T21:10:00.643Z,976.3
2023-03-06T21:20:00.648Z,976.4
2023-03-06T21:30:00.666Z,976.6
2023-03-06T21:40:00.680Z,976.5
2023-03-06T21:50:00.682Z,976.4
2023-03-06T22:00:00.644Z,976.4
2023-03-06T22:10:00.659Z,976.4
2023-03-06T22:20:00.662Z,976.2
2023-03-06T22:30:00.694Z,976.3
2023-03-06T22:40:00.677Z,976.3
2023-03-06T22:50:00.635Z,976.3
2023-03-06T23:00:00.666Z,976.3
2023-03-06T23:10:00.676Z,976.3
2023-03-06T23:20:00.681Z,976.4
2023-03-06T23:30:00.772Z,976.4
2023-03-06T23:40:00.689Z,976.4
2023-03-06T23:50:00.671Z,976.5
